createdAt,value
2022-12-16T00:02:03.524Z,55.65
2022-12-16T00:04:36.617Z,46.17
2022-12-16T00:07:09.064Z,52.67
2022-12-16T00:09:42.023Z,51.78
2022-12-16T00:12:14.546Z,43.60
2022-12-16T00:14:47.439Z,32.45
2022-12-16T00:17:19.970Z,57.22
2022-12-16T00:19:52.900Z,56.92
2022-12-16T00:22:25.458Z,55.15
2022-12-16T00:24:58.775Z,56.10
2022-12-16T00:27:31.242Z,52.53
2022-12-16T00:30:04.908Z,47.38
2022-12-16T00:32:37.383Z,66.60
2022-12-16T00:35:10.280Z,53.97
2022-12-16T00:37:42.849Z,49.70
2022-12-16T00:40:15.715Z,54.28
2022-12-16T00:42:48.308Z,48.20
2022-12-16T00:45:21.375Z,33.70
2022-12-16T00:47:53.890Z,55.42
2022-12-16T00:50:27.145Z,44.95
2022-12-16T00:52:59.638Z,49.65
2022-12-16T00:55:32.978Z,58.28
2022-12-16T00:58:06.438Z,55.92
2022-12-16T01:00:39.422Z,64.07
2022-12-16T01:03:16.709Z,49.65
2022-12-16T01:05:53.021Z,49.33
2022-12-16T01:08:26.232Z,46.08
2022-12-16T01:10:59.145Z,49.35
2022-12-16T01:13:32.222Z,56.38
2022-12-16T01:16:05.345Z,54.70
2022-12-16T01:18:38.065Z,43.08
2022-12-16T01:21:12.473Z,67.90
2022-12-16T01:23:45.125Z,52.97
2022-12-16T01:26:18.518Z,51.50
2022-12-16T01:28:51.163Z,46.38
2022-12-16T01:31:25.222Z,52.42
2022-12-16T01:33:57.864Z,47.35
2022-12-16T01:36:30.834Z,58.90
2022-12-16T01:39:03.470Z,54.33
2022-12-16T01:41:36.354Z,57.25
2022-12-16T01:44:35.001Z,39.75
2022-12-16T01:47:10.308Z,47.58
2022-12-16T01:49:54.942Z,56.47
2022-12-16T01:52:30.444Z,58.53
2022-12-16T01:55:07.559Z,52.85
2022-12-16T01:57:43.056Z,56.75
2022-12-16T02:00:15.769Z,44.28
2022-12-16T02:02:48.918Z,50.33
2022-12-16T02:05:24.793Z,48.92
2022-12-16T02:08:11.376Z,45.10
2022-12-16T02:10:43.907Z,44.50
2022-12-16T02:13:23.887Z,47.63
2022-12-16T02:15:59.200Z,47.25
2022-12-16T02:18:38.416Z,36.03
2022-12-16T02:21:29.352Z,37.28
2022-12-16T02:24:20.577Z,47.80
2022-12-16T02:26:55.770Z,46.38
2022-12-16T02:29:37.860Z,49.55
2022-12-16T02:35:03.495Z,45.55
2022-12-16T02:37:45.215Z,48.05
2022-12-16T02:40:23.406Z,35.88
2022-12-16T02:43:00.169Z,36.92
2022-12-16T02:45:34.722Z,47.70
2022-12-16T02:48:07.270Z,38.92
2022-12-16T02:50:41.870Z,42.25
2022-12-16T02:53:14.627Z,39.53
2022-12-16T02:55:50.461Z,39.92
2022-12-16T02:58:36.530Z,43.00
2022-12-16T03:01:20.229Z,40.47
2022-12-16T03:03:58.870Z,32.75
2022-12-16T03:06:33.704Z,44.55
2022-12-16T03:09:08.816Z,26.23
2022-12-16T03:11:43.647Z,39.00
2022-12-16T03:14:17.489Z,27.08
2022-12-16T03:16:51.545Z,26.05
2022-12-16T03:19:25.097Z,28.77
2022-12-16T03:22:11.278Z,36.75
2022-12-16T03:24:43.828Z,40.00
2022-12-16T03:27:29.465Z,28.42
2022-12-16T03:30:06.955Z,39.40
2022-12-16T03:32:42.222Z,31.35
2022-12-16T03:35:23.870Z,40.80
2022-12-16T03:37:58.454Z,36.50
2022-12-16T03:40:32.443Z,30.13
2022-12-16T03:43:05.823Z,27.27
2022-12-16T03:45:40.407Z,19.45
2022-12-16T03:48:14.235Z,33.10
2022-12-16T03:50:46.807Z,24.35
2022-12-16T03:53:19.737Z,41.78
2022-12-16T03:55:52.379Z,27.35
2022-12-16T03:58:25.376Z,47.17
2022-12-16T04:00:57.885Z,27.73
2022-12-16T04:03:31.247Z,30.50
2022-12-16T04:06:04.351Z,24.52
2022-12-16T04:08:37.222Z,31.58
2022-12-16T04:11:28.395Z,30.70
2022-12-16T04:14:19.711Z,40.80
2022-12-16T04:17:10.549Z,30.23
2022-12-16T04:20:03.338Z,32.75
2022-12-16T04:22:56.020Z,37.55
2022-12-16T04:25:30.357Z,41.22
2022-12-16T04:28:03.107Z,38.95
2022-12-16T04:30:36.228Z,31.20
2022-12-16T04:33:29.616Z,34.80
2022-12-16T04:36:21.184Z,45.20
2022-12-16T04:39:11.927Z,41.20
2022-12-16T04:42:03.103Z,32.88
2022-12-16T04:44:54.002Z,43.83
2022-12-16T04:48:05.022Z,36.08
2022-12-16T04:50:56.120Z,36.90
2022-12-16T04:53:47.476Z,44.33
2022-12-16T04:56:38.331Z,50.60
2022-12-16T04:59:29.571Z,46.80
2022-12-16T05:02:20.819Z,38.75
2022-12-16T05:08:03.337Z,48.67
2022-12-16T05:10:54.461Z,31.65
2022-12-16T05:13:46.084Z,45.78
2022-12-16T05:16:37.320Z,47.15
2022-12-16T05:19:31.723Z,43.70
2022-12-16T05:22:23.365Z,39.20
2022-12-16T05:25:14.513Z,37.78
2022-12-16T05:28:09.146Z,52.60
2022-12-16T05:31:00.339Z,36.33
2022-12-16T05:33:51.631Z,49.08
2022-12-16T05:36:42.629Z,43.75
2022-12-16T05:39:33.888Z,41.53
2022-12-16T05:42:25.173Z,38.93
2022-12-16T05:45:16.313Z,39.38
2022-12-16T05:48:08.054Z,34.90
2022-12-16T05:50:59.445Z,46.13
2022-12-16T05:53:50.590Z,48.67
2022-12-16T05:56:41.880Z,42.58
2022-12-16T05:59:33.195Z,52.73
2022-12-16T06:02:24.471Z,48.08
2022-12-16T06:05:15.991Z,39.03
2022-12-16T06:08:10.805Z,34.58
2022-12-16T06:11:02.018Z,36.15
2022-12-16T06:13:53.279Z,44.88
2022-12-16T06:16:44.345Z,43.73
2022-12-16T06:19:35.620Z,41.22
2022-12-16T06:22:26.736Z,47.03
2022-12-16T06:25:17.987Z,44.10
2022-12-16T06:28:10.270Z,38.22
2022-12-16T06:31:01.678Z,43.90
2022-12-16T06:33:54.929Z,37.40
2022-12-16T06:36:47.323Z,36.38
2022-12-16T06:39:38.587Z,47.45
2022-12-16T06:42:30.665Z,31.92
2022-12-16T06:45:23.608Z,38.13
2022-12-16T06:48:15.171Z,46.72
2022-12-16T06:51:06.302Z,40.60
2022-12-16T06:53:57.756Z,45.75
2022-12-16T06:56:48.683Z,37.38
2022-12-16T06:59:40.012Z,47.15
2022-12-16T07:02:31.294Z,35.00
2022-12-16T07:05:23.539Z,34.17
2022-12-16T07:08:14.670Z,37.92
2022-12-16T07:11:16.070Z,19.13
2022-12-16T07:14:08.819Z,31.77
2022-12-16T07:16:59.975Z,26.92
2022-12-16T07:19:51.070Z,40.95
2022-12-16T07:22:42.427Z,33.47
2022-12-16T07:25:33.534Z,32.78
2022-12-16T07:28:24.635Z,37.53
2022-12-16T07:31:16.133Z,26.83
2022-12-16T07:34:07.233Z,31.67
2022-12-16T07:36:59.230Z,39.50
2022-12-16T07:39:54.879Z,34.63
2022-12-16T07:42:55.983Z,48.70
2022-12-16T07:45:47.673Z,25.60
2022-12-16T07:48:38.884Z,34.10
2022-12-16T07:51:30.107Z,41.00
2022-12-16T07:54:21.234Z,104.00
2022-12-16T07:57:12.711Z,105.28
2022-12-16T08:00:03.937Z,84.45
2022-12-16T08:03:03.186Z,124.68
2022-12-16T08:05:54.255Z,69.63
2022-12-16T08:08:45.432Z,43.70
2022-12-16T08:11:36.629Z,66.53
2022-12-16T08:14:27.797Z,53.42
2022-12-16T08:17:18.975Z,39.35
2022-12-16T08:20:10.317Z,44.20
2022-12-16T08:23:01.296Z,35.03
2022-12-16T08:25:52.684Z,24.05
2022-12-16T08:28:46.457Z,33.55
2022-12-16T08:31:37.815Z,33.90
2022-12-16T08:34:28.640Z,30.08
2022-12-16T08:37:20.539Z,37.60
2022-12-16T08:40:34.188Z,28.65
2022-12-16T08:43:22.973Z,39.42
2022-12-16T08:46:14.644Z,39.72
2022-12-16T08:49:05.966Z,38.45
2022-12-16T08:51:57.177Z,29.87
2022-12-16T08:54:48.513Z,30.25
2022-12-16T08:57:39.944Z,57.45
2022-12-16T09:03:22.545Z,32.63
2022-12-16T09:09:05.331Z,21.92
2022-12-16T09:11:56.443Z,34.10
2022-12-16T09:14:47.500Z,40.72
2022-12-16T09:17:38.999Z,39.35
2022-12-16T09:20:30.163Z,39.33
2022-12-16T09:23:21.706Z,49.42
2022-12-16T09:26:12.592Z,37.95
2022-12-16T09:29:03.952Z,42.33
2022-12-16T09:31:55.048Z,36.57
2022-12-16T09:34:47.411Z,36.50
2022-12-16T09:37:38.157Z,38.73
2022-12-16T09:40:33.459Z,41.88
2022-12-16T09:43:24.633Z,34.63
2022-12-16T09:46:40.959Z,32.78
2022-12-16T09:49:37.116Z,41.92
2022-12-16T09:52:33.424Z,33.65
2022-12-16T09:55:26.247Z,37.75
2022-12-16T09:58:17.755Z,42.13
2022-12-16T10:01:09.239Z,39.95
2022-12-16T10:07:01.388Z,41.45
2022-12-16T10:09:55.664Z,44.20
2022-12-16T10:12:59.855Z,48.50
2022-12-16T10:15:57.001Z,34.88
2022-12-16T10:19:03.627Z,40.85
2022-12-16T10:22:07.000Z,24.67
2022-12-16T10:25:07.311Z,40.28
2022-12-16T10:28:03.950Z,45.90
2022-12-16T10:30:56.806Z,40.75
2022-12-16T10:33:48.526Z,28.95
2022-12-16T10:36:42.312Z,46.78
2022-12-16T10:39:43.114Z,40.63
2022-12-16T10:42:37.875Z,25.88
2022-12-16T10:46:09.299Z,29.83
2022-12-16T10:49:00.757Z,45.05
2022-12-16T10:54:47.395Z,29.95
2022-12-16T10:57:56.200Z,39.85
2022-12-16T11:01:04.706Z,35.13
2022-12-16T11:04:02.162Z,47.30
2022-12-16T11:06:53.081Z,43.35
2022-12-16T11:09:47.995Z,51.42
2022-12-16T11:12:46.736Z,39.67
2022-12-16T11:15:41.644Z,46.72
2022-12-16T11:18:35.050Z,47.85
2022-12-16T11:21:34.479Z,50.03
2022-12-16T11:24:30.051Z,43.45
2022-12-16T11:27:22.866Z,55.65
2022-12-16T11:30:18.329Z,43.55
2022-12-16T11:33:16.025Z,40.80
2022-12-16T11:36:10.646Z,31.45
2022-12-16T11:39:05.110Z,46.40
2022-12-16T11:42:05.266Z,43.10
2022-12-16T11:45:01.460Z,39.33
2022-12-16T11:48:04.938Z,56.03
2022-12-16T11:51:01.740Z,42.85
2022-12-16T11:53:59.270Z,42.55
2022-12-16T11:56:56.141Z,44.15
2022-12-16T11:59:53.372Z,47.83
2022-12-16T12:03:06.588Z,41.72
2022-12-16T12:06:01.804Z,43.55
2022-12-16T12:09:12.083Z,36.97
2022-12-16T12:12:15.881Z,58.55
2022-12-16T12:15:07.013Z,54.85
2022-12-16T12:18:01.228Z,48.90
2022-12-16T12:20:52.682Z,35.13
2022-12-16T12:24:02.081Z,53.88
2022-12-16T12:26:55.186Z,37.38
2022-12-16T12:29:56.367Z,45.85
2022-12-16T12:32:47.521Z,28.77
2022-12-16T12:35:57.243Z,32.22
2022-12-16T12:38:54.331Z,47.40
2022-12-16T12:41:50.235Z,40.33
2022-12-16T12:45:00.514Z,41.50
2022-12-16T12:47:52.185Z,43.60
2022-12-16T12:50:59.519Z,30.00
2022-12-16T12:54:05.362Z,30.63
2022-12-16T12:57:04.767Z,48.33
2022-12-16T13:00:08.156Z,36.50
2022-12-16T13:03:09.262Z,38.22
2022-12-16T13:06:02.555Z,38.58
2022-12-16T13:08:57.511Z,39.85
2022-12-16T13:11:48.538Z,33.72
2022-12-16T13:14:51.928Z,34.15
2022-12-16T13:17:44.194Z,37.53
2022-12-16T13:20:51.386Z,43.63
2022-12-16T13:23:50.318Z,49.33
2022-12-16T13:26:43.106Z,38.72
2022-12-16T13:29:39.870Z,45.78
2022-12-16T13:32:31.097Z,34.83
2022-12-16T13:35:25.026Z,44.23
2022-12-16T13:38:21.417Z,46.75
2022-12-16T13:41:14.081Z,28.23
2022-12-16T13:44:05.820Z,36.70
2022-12-16T13:47:06.199Z,43.55
2022-12-16T13:50:10.651Z,53.38
2022-12-16T13:53:01.769Z,48.88
2022-12-16T13:55:56.256Z,36.00
2022-12-16T13:58:55.507Z,33.13
2022-12-16T14:01:55.984Z,38.25
2022-12-16T14:05:19.431Z,48.70
2022-12-16T14:08:11.083Z,52.72
2022-12-16T14:11:02.350Z,47.45
2022-12-16T14:14:02.229Z,47.15
2022-12-16T14:16:53.495Z,57.75
2022-12-16T14:19:55.622Z,44.67
2022-12-16T14:22:46.692Z,53.40
2022-12-16T14:25:39.944Z,51.20
2022-12-16T14:28:50.627Z,53.83
2022-12-16T14:31:42.454Z,53.60
2022-12-16T14:34:55.547Z,67.38
2022-12-16T14:37:54.815Z,56.05
2022-12-16T14:40:50.316Z,53.53
2022-12-16T14:43:43.635Z,62.53
2022-12-16T14:46:47.152Z,62.13
2022-12-16T14:49:40.594Z,60.67
2022-12-16T14:52:36.116Z,57.45
2022-12-16T14:55:32.447Z,54.45
2022-12-16T14:58:25.160Z,50.72
2022-12-16T15:01:17.953Z,79.50
2022-12-16T15:04:09.279Z,53.13
2022-12-16T15:09:58.619Z,65.88
2022-12-16T15:13:00.868Z,54.00
2022-12-16T15:18:46.530Z,57.95
2022-12-16T15:21:38.412Z,63.53
2022-12-16T15:24:35.056Z,57.35
2022-12-16T15:27:33.337Z,61.33
2022-12-16T15:30:43.676Z,58.95
2022-12-16T15:33:36.109Z,66.30
2022-12-16T15:36:43.589Z,57.97
2022-12-16T15:39:37.830Z,47.80
2022-12-16T15:42:48.272Z,54.28
2022-12-16T15:45:45.021Z,63.05
2022-12-16T15:48:39.228Z,52.70
2022-12-16T15:51:45.817Z,65.40
2022-12-16T15:54:39.804Z,72.20
2022-12-16T15:57:46.409Z,73.15
2022-12-16T16:00:47.833Z,76.70
2022-12-16T16:03:46.217Z,70.53
2022-12-16T16:06:41.805Z,72.72
2022-12-16T16:09:33.071Z,60.30
2022-12-16T16:12:24.349Z,87.97
2022-12-16T16:15:15.410Z,87.50
2022-12-16T16:18:09.632Z,74.10
2022-12-16T16:21:01.318Z,63.70
2022-12-16T16:23:53.192Z,65.68
2022-12-16T16:26:45.261Z,68.43
2022-12-16T16:29:37.100Z,62.75
2022-12-16T16:32:30.983Z,71.90
2022-12-16T16:35:24.033Z,65.68
2022-12-16T16:38:18.428Z,53.05
2022-12-16T16:41:10.374Z,67.35
2022-12-16T16:44:01.564Z,60.92
2022-12-16T16:46:57.647Z,65.55
2022-12-16T16:49:50.735Z,58.90
2022-12-16T16:52:42.903Z,58.72
2022-12-16T16:55:38.969Z,72.38
2022-12-16T16:58:35.422Z,49.33
2022-12-16T17:01:30.937Z,51.90
2022-12-16T17:04:23.091Z,51.10
2022-12-16T17:07:14.339Z,59.83
2022-12-16T17:10:05.577Z,54.60
2022-12-16T17:13:04.283Z,62.85
2022-12-16T17:15:56.512Z,64.55
2022-12-16T17:18:52.119Z,66.55
2022-12-16T17:21:44.413Z,63.13
2022-12-16T17:24:35.670Z,88.13
2022-12-16T17:27:34.631Z,64.32
2022-12-16T17:30:30.359Z,63.00
2022-12-16T17:33:22.101Z,53.30
2022-12-16T17:36:13.191Z,72.53
2022-12-16T17:39:04.962Z,79.88
2022-12-16T17:41:55.967Z,60.58
2022-12-16T17:44:47.183Z,62.13
2022-12-16T17:47:45.778Z,80.07
2022-12-16T17:50:36.872Z,60.33
2022-12-16T17:53:27.838Z,70.72
2022-12-16T17:56:23.261Z,61.15
2022-12-16T17:59:14.403Z,65.22
2022-12-16T18:02:05.882Z,65.30
2022-12-16T18:04:57.041Z,56.95
2022-12-16T18:07:48.253Z,53.78
2022-12-16T18:10:42.868Z,64.45
2022-12-16T18:13:34.472Z,61.42
2022-12-16T18:16:26.060Z,56.80
2022-12-16T18:19:17.418Z,72.00
2022-12-16T18:22:08.434Z,51.47
2022-12-16T18:24:59.650Z,56.97
2022-12-16T18:27:50.436Z,83.93
2022-12-16T18:30:42.046Z,51.45
2022-12-16T18:33:33.336Z,56.58
2022-12-16T18:36:25.631Z,69.60
2022-12-16T18:39:17.156Z,74.53
2022-12-16T18:42:08.521Z,63.17
2022-12-16T18:45:01.216Z,51.93
2022-12-16T18:47:53.088Z,89.05
2022-12-16T18:50:44.015Z,69.20
2022-12-16T18:53:35.836Z,71.20
2022-12-16T18:59:18.437Z,77.78
2022-12-16T19:02:09.549Z,101.20
2022-12-16T19:05:01.102Z,86.13
2022-12-16T19:07:52.252Z,81.63
2022-12-16T19:10:43.843Z,81.43
2022-12-16T19:13:35.033Z,70.47
2022-12-16T19:16:26.844Z,57.05
2022-12-16T19:19:20.241Z,92.10
2022-12-16T19:22:11.894Z,77.03
2022-12-16T19:25:03.102Z,78.97
2022-12-16T19:27:56.773Z,55.20
2022-12-16T19:30:48.025Z,57.03
2022-12-16T19:33:39.249Z,51.72
2022-12-16T19:36:30.364Z,59.38
2022-12-16T19:39:21.581Z,73.55
2022-12-16T19:42:12.730Z,54.70
2022-12-16T19:45:04.126Z,67.63
2022-12-16T19:47:55.018Z,58.78
2022-12-16T19:50:47.961Z,45.08
2022-12-16T19:53:39.135Z,51.63
2022-12-16T19:56:30.430Z,52.22
2022-12-16T19:59:21.532Z,59.90
2022-12-16T20:02:13.101Z,69.18
2022-12-16T20:05:04.208Z,71.63
2022-12-16T20:07:56.407Z,62.72
2022-12-16T20:10:48.188Z,58.58
2022-12-16T20:13:39.402Z,65.95
2022-12-16T20:16:30.516Z,65.43
2022-12-16T20:19:21.780Z,61.08
2022-12-16T20:22:16.480Z,65.20
2022-12-16T20:25:07.911Z,58.97
2022-12-16T20:27:59.048Z,68.30
2022-12-16T20:30:50.375Z,75.30
2022-12-16T20:33:41.729Z,60.80
2022-12-16T20:36:33.353Z,65.00
2022-12-16T20:39:24.600Z,70.00
2022-12-16T20:42:15.826Z,81.72
2022-12-16T20:45:07.607Z,79.32
2022-12-16T20:47:58.832Z,52.13
2022-12-16T20:50:49.977Z,72.37
2022-12-16T20:53:42.184Z,69.72
2022-12-16T20:56:33.606Z,66.13
2022-12-16T20:59:24.820Z,77.18
2022-12-16T21:05:27.378Z,76.57
2022-12-16T21:08:18.663Z,64.35
2022-12-16T21:11:10.026Z,63.33
2022-12-16T21:14:01.080Z,72.93
2022-12-16T21:14:42.734Z,60.35
2022-12-16T21:16:52.300Z,62.08
2022-12-16T21:19:47.532Z,64.63
2022-12-16T21:22:38.699Z,67.28
2022-12-16T21:25:29.754Z,76.07
2022-12-16T21:28:21.039Z,55.97
2022-12-16T21:31:12.250Z,63.43
2022-12-16T21:34:03.500Z,71.68
2022-12-16T21:36:56.057Z,83.33
2022-12-16T21:39:47.566Z,82.18
2022-12-16T21:42:43.671Z,70.50
2022-12-16T21:45:35.311Z,67.80
2022-12-16T21:48:29.570Z,54.38
2022-12-16T21:51:20.820Z,84.45
2022-12-16T21:54:11.943Z,62.27
2022-12-16T21:57:03.837Z,63.63
2022-12-16T21:59:56.359Z,64.70
2022-12-16T22:02:48.078Z,91.13
2022-12-16T22:05:39.380Z,80.75
2022-12-16T22:08:30.719Z,57.55
2022-12-16T22:11:29.049Z,67.43
2022-12-16T22:14:20.322Z,76.15
2022-12-16T22:17:11.268Z,70.95
2022-12-16T22:20:02.618Z,74.13
2022-12-16T22:22:53.779Z,86.65
2022-12-16T22:25:47.363Z,71.53
2022-12-16T22:28:38.481Z,67.78
2022-12-16T22:31:29.685Z,64.15
2022-12-16T22:34:20.838Z,64.50
2022-12-16T22:37:11.990Z,62.83
2022-12-16T22:40:03.175Z,53.57
2022-12-16T22:42:54.400Z,52.20
2022-12-16T22:45:47.080Z,60.28
2022-12-16T22:48:38.454Z,67.55
2022-12-16T22:51:33.026Z,57.30
2022-12-16T22:54:24.239Z,64.50
2022-12-16T22:57:15.484Z,44.57
2022-12-16T23:00:07.395Z,63.30
2022-12-16T23:02:58.484Z,59.13
2022-12-16T23:05:49.827Z,53.05
2022-12-16T23:08:41.034Z,70.60
2022-12-16T23:11:40.337Z,54.97
2022-12-16T23:14:30.986Z,58.88
2022-12-16T23:17:22.474Z,80.38
2022-12-16T23:20:13.548Z,82.63
2022-12-16T23:23:24.530Z,77.57
2022-12-16T23:26:16.364Z,77.13
2022-12-16T23:29:09.168Z,47.75
2022-12-16T23:32:00.347Z,58.53
2022-12-16T23:34:51.499Z,71.25
2022-12-16T23:40:34.748Z,67.03
2022-12-16T23:43:25.611Z,76.87
2022-12-16T23:46:16.904Z,60.63
2022-12-16T23:49:07.999Z,89.93
2022-12-16T23:51:59.023Z,82.80
2022-12-16T23:54:49.872Z,63.95
2022-12-16T23:57:41.272Z,80.70
